Tabor City, North Carolina
Current Conditions -  °F | °C
As of 11:15 AM on Sunday 23 Nov 2014 (Local Time) from KCPC Reporting Station
Light Rain Light Rain  
Wind Chill: 57°   Ceiling: 3600
Heat Index: 57°   Visibility: 7mi
Dew Point: 55°   Wind: 7mph
Humidity: 94%   Direction: 100°E
Pressure: 30.13"   Gusts: NA
Location:  34.15°N, 78.88°W
Report Text: KCPC 231615Z AUTO 10006KT 7SM -RA SCT030 OVC036 14/13 A3013 RMK AO2 P0002
Loading
Personal Weather Stations






























Interactive Weather Map New forecast layout! Learn more

10-Day Weather Forecast

Advertisements
Track Severe Weather on mobile